sensor_id;sensor_type;location;lat;lon;timestamp;temperature;humidity
1988;DHT22;12775;46.994;15.498;2023-05-14T00:01:16;14.80;99.90
1988;DHT22;12775;46.994;15.498;2023-05-14T00:03:42;14.70;99.90
1988;DHT22;12775;46.994;15.498;2023-05-14T00:06:10;14.70;99.90
1988;DHT22;12775;46.994;15.498;2023-05-14T00:08:36;14.60;99.90
1988;DHT22;12775;46.994;15.498;2023-05-14T00:11:03;14.60;99.90
1988;DHT22;12775;46.994;15.498;2023-05-14T00:13:30;14.60;99.90
1988;DHT22;12775;46.994;15.498;2023-05-14T00:15:56;14.50;99.90
1988;DHT22;12775;46.994;15.498;2023-05-14T00:18:23;14.50;99.90
1988;DHT22;12775;46.994;15.498;2023-05-14T00:20:49;14.40;99.90
1988;DHT22;12775;46.994;15.498;2023-05-14T00:23:16;14.40;99.90
1988;DHT22;12775;46.994;15.498;2023-05-14T00:25:43;14.40;99.90
1988;DHT22;12775;46.994;15.498;2023-05-14T00:28:09;14.30;99.90
1988;DHT22;12775;46.994;15.498;2023-05-14T00:30:36;14.20;99.90
1988;DHT22;12775;46.994;15.498;2023-05-14T00:33:03;14.20;99.90
1988;DHT22;12775;46.994;15.498;2023-05-14T00:35:29;14.20;99.90
1988;DHT22;12775;46.994;15.498;2023-05-14T00:37:56;14.10;99.90
1988;DHT22;12775;46.994;15.498;2023-05-14T00:40:25;14.10;99.90
1988;DHT22;12775;46.994;15.498;2023-05-14T00:42:53;14.20;99.90
1988;DHT22;12775;46.994;15.498;2023-05-14T00:45:19;14.10;99.90
1988;DHT22;12775;46.994;15.498;2023-05-14T00:47:46;14.10;99.90
1988;DHT22;12775;46.994;15.498;2023-05-14T00:50:12;14.10;99.90
1988;DHT22;12775;46.994;15.498;2023-05-14T00:52:39;14.10;99.90
1988;DHT22;12775;46.994;15.498;2023-05-14T00:55:06;14.20;99.90
1988;DHT22;12775;46.994;15.498;2023-05-14T00:57:33;14.20;99.90
1988;DHT22;12775;46.994;15.498;2023-05-14T01:00:00;14.20;99.90
1988;DHT22;12775;46.994;15.498;2023-05-14T01:02:26;14.20;99.90
1988;DHT22;12775;46.994;15.498;2023-05-14T01:04:53;14.10;99.90
1988;DHT22;12775;46.994;15.498;2023-05-14T01:07:24;14.00;99.90
1988;DHT22;12775;46.994;15.498;2023-05-14T01:09:54;13.90;99.90
1988;DHT22;12775;46.994;15.498;2023-05-14T01:12:25;14.00;99.90
1988;DHT22;12775;46.994;15.498;2023-05-14T01:14:55;13.90;99.90
1988;DHT22;12775;46.994;15.498;2023-05-14T01:17:21;13.80;99.90
1988;DHT22;12775;46.994;15.498;2023-05-14T01:19:46;13.70;99.90
1988;DHT22;12775;46.994;15.498;2023-05-14T01:22:13;13.70;99.90
1988;DHT22;12775;46.994;15.498;2023-05-14T01:24:40;13.60;99.90
1988;DHT22;12775;46.994;15.498;2023-05-14T01:27:17;13.60;99.90
1988;DHT22;12775;46.994;15.498;2023-05-14T01:29:44;13.50;99.90
1988;DHT22;12775;46.994;15.498;2023-05-14T01:32:09;13.30;99.90
1988;DHT22;12775;46.994;15.498;2023-05-14T01:34:35;13.20;99.90
1988;DHT22;12775;46.994;15.498;2023-05-14T01:37:02;13.20;99.90
1988;DHT22;12775;46.994;15.498;2023-05-14T01:39:29;13.20;99.90
1988;DHT22;12775;46.994;15.498;2023-05-14T01:41:55;13.00;99.90
1988;DHT22;12775;46.994;15.498;2023-05-14T01:44:22;13.10;99.90
1988;DHT22;12775;46.994;15.498;2023-05-14T01:46:49;13.10;99.90
1988;DHT22;12775;46.994;15.498;2023-05-14T01:49:16;13.10;99.90
1988;DHT22;12775;46.994;15.498;2023-05-14T01:51:42;13.10;99.90
1988;DHT22;12775;46.994;15.498;2023-05-14T01:54:09;13.10;99.90
1988;DHT22;12775;46.994;15.498;2023-05-14T01:56:36;13.10;99.90
1988;DHT22;12775;46.994;15.498;2023-05-14T01:59:03;13.20;99.90
1988;DHT22;12775;46.994;15.498;2023-05-14T02:01:30;13.20;99.90
1988;DHT22;12775;46.994;15.498;2023-05-14T02:03:57;13.10;99.90
1988;DHT22;12775;46.994;15.498;2023-05-14T02:06:24;13.10;99.90
1988;DHT22;12775;46.994;15.498;2023-05-14T02:08:51;13.10;99.90
1988;DHT22;12775;46.994;15.498;2023-05-14T02:11:17;13.00;99.90
1988;DHT22;12775;46.994;15.498;2023-05-14T02:13:44;13.00;99.90
1988;DHT22;12775;46.994;15.498;2023-05-14T02:16:11;13.00;99.90
1988;DHT22;12775;46.994;15.498;2023-05-14T02:18:37;13.00;99.90
1988;DHT22;12775;46.994;15.498;2023-05-14T02:21:04;13.10;99.90
1988;DHT22;12775;46.994;15.498;2023-05-14T02:23:31;13.10;99.90
1988;DHT22;12775;46.994;15.498;2023-05-14T02:25:58;13.10;99.90
1988;DHT22;12775;46.994;15.498;2023-05-14T02:28:25;13.10;99.90
1988;DHT22;12775;46.994;15.498;2023-05-14T02:30:51;13.20;99.90
1988;DHT22;12775;46.994;15.498;2023-05-14T02:33:18;13.20;99.90
1988;DHT22;12775;46.994;15.498;2023-05-14T02:35:44;13.10;99.90
1988;DHT22;12775;46.994;15.498;2023-05-14T02:38:12;13.00;99.90
1988;DHT22;12775;46.994;15.498;2023-05-14T02:40:38;12.90;99.90
1988;DHT22;12775;46.994;15.498;2023-05-14T02:43:05;13.00;99.90
1988;DHT22;12775;46.994;15.498;2023-05-14T02:45:31;12.90;99.90
1988;DHT22;12775;46.994;15.498;2023-05-14T02:48:00;12.90;99.90
1988;DHT22;12775;46.994;15.498;2023-05-14T02:50:26;12.90;99.90
1988;DHT22;12775;46.994;15.498;2023-05-14T02:52:53;12.90;99.90
1988;DHT22;12775;46.994;15.498;2023-05-14T02:55:20;12.90;99.90
1988;DHT22;12775;46.994;15.498;2023-05-14T02:57:46;12.90;99.90
1988;DHT22;12775;46.994;15.498;2023-05-14T03:00:13;12.90;99.90
1988;DHT22;12775;46.994;15.498;2023-05-14T03:02:40;12.90;99.90
1988;DHT22;12775;46.994;15.498;2023-05-14T03:05:07;12.80;99.90
1988;DHT22;12775;46.994;15.498;2023-05-14T03:07:34;12.90;99.90
1988;DHT22;12775;46.994;15.498;2023-05-14T03:10:00;12.90;99.90
1988;DHT22;12775;46.994;15.498;2023-05-14T03:12:27;12.90;99.90
1988;DHT22;12775;46.994;15.498;2023-05-14T03:14:53;12.90;99.90
1988;DHT22;12775;46.994;15.498;2023-05-14T03:17:20;12.90;99.90
1988;DHT22;12775;46.994;15.498;2023-05-14T03:19:48;12.90;99.90
1988;DHT22;12775;46.994;15.498;2023-05-14T03:22:14;13.00;99.90
1988;DHT22;12775;46.994;15.498;2023-05-14T03:24:41;13.00;99.90
1988;DHT22;12775;46.994;15.498;2023-05-14T03:27:07;12.90;99.90
1988;DHT22;12775;46.994;15.498;2023-05-14T03:29:34;13.00;99.90
1988;DHT22;12775;46.994;15.498;2023-05-14T03:32:01;13.00;99.90
1988;DHT22;12775;46.994;15.498;2023-05-14T03:34:27;13.10;99.90
1988;DHT22;12775;46.994;15.498;2023-05-14T03:36:54;13.20;99.90
1988;DHT22;12775;46.994;15.498;2023-05-14T03:39:20;13.30;99.90
1988;DHT22;12775;46.994;15.498;2023-05-14T03:41:47;13.30;99.90
1988;DHT22;12775;46.994;15.498;2023-05-14T03:44:14;13.40;99.90
1988;DHT22;12775;46.994;15.498;2023-05-14T03:46:40;13.50;99.90
1988;DHT22;12775;46.994;15.498;2023-05-14T03:49:07;13.60;99.90
1988;DHT22;12775;46.994;15.498;2023-05-14T03:51:33;13.60;99.90
1988;DHT22;12775;46.994;15.498;2023-05-14T03:54:00;13.60;99.90
1988;DHT22;12775;46.994;15.498;2023-05-14T03:56:27;13.70;99.90
1988;DHT22;12775;46.994;15.498;2023-05-14T03:58:53;13.80;99.90
1988;DHT22;12775;46.994;15.498;2023-05-14T04:01:20;13.80;99.90
1988;DHT22;12775;46.994;15.498;2023-05-14T04:03:46;13.90;99.90
1988;DHT22;12775;46.994;15.498;2023-05-14T04:06:13;13.90;99.90
1988;DHT22;12775;46.994;15.498;2023-05-14T04:08:40;13.90;99.90
1988;DHT22;12775;46.994;15.498;2023-05-14T04:11:06;13.80;99.90
1988;DHT22;12775;46.994;15.498;2023-05-14T04:13:33;13.80;99.90
1988;DHT22;12775;46.994;15.498;2023-05-14T04:15:59;13.80;99.90
1988;DHT22;12775;46.994;15.498;2023-05-14T04:18:27;13.70;99.90
1988;DHT22;12775;46.994;15.498;2023-05-14T04:20:54;13.50;99.90
1988;DHT22;12775;46.994;15.498;2023-05-14T04:23:21;13.50;99.90
1988;DHT22;12775;46.994;15.498;2023-05-14T04:25:48;13.50;99.90
1988;DHT22;12775;46.994;15.498;2023-05-14T04:28:14;13.40;99.90
1988;DHT22;12775;46.994;15.498;2023-05-14T04:30:42;13.30;99.90
1988;DHT22;12775;46.994;15.498;2023-05-14T04:33:08;13.30;99.90
1988;DHT22;12775;46.994;15.498;2023-05-14T04:35:35;13.30;99.90
1988;DHT22;12775;46.994;15.498;2023-05-14T04:38:02;13.30;99.90
1988;DHT22;12775;46.994;15.498;2023-05-14T04:40:28;13.20;99.90
1988;DHT22;12775;46.994;15.498;2023-05-14T04:42:55;13.10;99.90
1988;DHT22;12775;46.994;15.498;2023-05-14T04:45:22;13.20;99.90
1988;DHT22;12775;46.994;15.498;2023-05-14T04:47:48;13.20;99.90
1988;DHT22;12775;46.994;15.498;2023-05-14T04:50:15;13.10;99.90
1988;DHT22;12775;46.994;15.498;2023-05-14T04:52:41;13.10;99.90
1988;DHT22;12775;46.994;15.498;2023-05-14T04:55:08;13.10;99.90
1988;DHT22;12775;46.994;15.498;2023-05-14T04:57:35;13.00;99.90
1988;DHT22;12775;46.994;15.498;2023-05-14T05:00:02;13.00;99.90
1988;DHT22;12775;46.994;15.498;2023-05-14T05:02:28;12.90;99.90
1988;DHT22;12775;46.994;15.498;2023-05-14T05:04:55;12.90;99.90
1988;DHT22;12775;46.994;15.498;2023-05-14T05:07:21;12.90;99.90
1988;DHT22;12775;46.994;15.498;2023-05-14T05:09:49;12.90;99.90
1988;DHT22;12775;46.994;15.498;2023-05-14T05:12:16;12.90;99.90
1988;DHT22;12775;46.994;15.498;2023-05-14T05:14:43;12.90;99.90
1988;DHT22;12775;46.994;15.498;2023-05-14T05:17:10;12.80;99.90
1988;DHT22;12775;46.994;15.498;2023-05-14T05:19:36;12.80;99.90
1988;DHT22;12775;46.994;15.498;2023-05-14T05:22:03;12.80;99.90
1988;DHT22;12775;46.994;15.498;2023-05-14T05:24:31;12.90;99.90
1988;DHT22;12775;46.994;15.498;2023-05-14T05:26:57;12.90;99.90
1988;DHT22;12775;46.994;15.498;2023-05-14T05:29:24;12.90;99.90
1988;DHT22;12775;46.994;15.498;2023-05-14T05:31:51;12.90;99.90
1988;DHT22;12775;46.994;15.498;2023-05-14T05:34:18;12.90;99.90
1988;DHT22;12775;46.994;15.498;2023-05-14T05:36:44;12.80;99.90
1988;DHT22;12775;46.994;15.498;2023-05-14T05:39:12;12.90;99.90
1988;DHT22;12775;46.994;15.498;2023-05-14T05:41:39;12.90;99.90
1988;DHT22;12775;46.994;15.498;2023-05-14T05:44:06;13.00;99.90
1988;DHT22;12775;46.994;15.498;2023-05-14T05:46:33;12.90;99.90
1988;DHT22;12775;46.994;15.498;2023-05-14T05:49:00;12.90;99.90
1988;DHT22;12775;46.994;15.498;2023-05-14T05:51:26;13.00;99.90
1988;DHT22;12775;46.994;15.498;2023-05-14T05:53:53;13.00;99.90
1988;DHT22;12775;46.994;15.498;2023-05-14T05:56:20;13.00;99.90
1988;DHT22;12775;46.994;15.498;2023-05-14T05:58:46;13.10;99.90
1988;DHT22;12775;46.994;15.498;2023-05-14T06:01:13;13.10;99.90
1988;DHT22;12775;46.994;15.498;2023-05-14T06:03:39;13.20;99.90
1988;DHT22;12775;46.994;15.498;2023-05-14T06:06:06;13.30;99.90
1988;DHT22;12775;46.994;15.498;2023-05-14T06:08:33;13.40;99.90
1988;DHT22;12775;46.994;15.498;2023-05-14T06:10:59;13.40;99.90
1988;DHT22;12775;46.994;15.498;2023-05-14T06:13:26;13.50;99.90
1988;DHT22;12775;46.994;15.498;2023-05-14T06:15:52;13.50;99.90
1988;DHT22;12775;46.994;15.498;2023-05-14T06:18:19;13.60;99.90
1988;DHT22;12775;46.994;15.498;2023-05-14T06:20:46;13.60;99.90
1988;DHT22;12775;46.994;15.498;2023-05-14T06:23:13;13.60;99.90
1988;DHT22;12775;46.994;15.498;2023-05-14T06:25:41;13.60;99.90
1988;DHT22;12775;46.994;15.498;2023-05-14T06:28:07;13.50;99.90
1988;DHT22;12775;46.994;15.498;2023-05-14T06:30:34;13.50;99.90
1988;DHT22;12775;46.994;15.498;2023-05-14T06:33:03;13.60;99.90
1988;DHT22;12775;46.994;15.498;2023-05-14T06:35:29;13.60;99.90
1988;DHT22;12775;46.994;15.498;2023-05-14T06:37:56;13.60;99.90
1988;DHT22;12775;46.994;15.498;2023-05-14T06:40:23;13.50;99.90
1988;DHT22;12775;46.994;15.498;2023-05-14T06:42:50;13.50;99.90
1988;DHT22;12775;46.994;15.498;2023-05-14T06:45:16;13.50;99.90
1988;DHT22;12775;46.994;15.498;2023-05-14T06:47:44;13.30;99.90
1988;DHT22;12775;46.994;15.498;2023-05-14T06:50:10;13.30;99.90
1988;DHT22;12775;46.994;15.498;2023-05-14T06:52:37;13.10;99.90
1988;DHT22;12775;46.994;15.498;2023-05-14T06:55:04;13.20;99.90
1988;DHT22;12775;46.994;15.498;2023-05-14T06:57:30;13.20;99.90
1988;DHT22;12775;46.994;15.498;2023-05-14T06:59:57;13.30;99.90
1988;DHT22;12775;46.994;15.498;2023-05-14T07:02:24;13.30;99.90
1988;DHT22;12775;46.994;15.498;2023-05-14T07:04:50;13.30;99.90
1988;DHT22;12775;46.994;15.498;2023-05-14T07:07:17;13.30;99.90
1988;DHT22;12775;46.994;15.498;2023-05-14T07:09:44;13.30;99.90
1988;DHT22;12775;46.994;15.498;2023-05-14T07:12:11;13.30;99.90
1988;DHT22;12775;46.994;15.498;2023-05-14T07:14:38;13.30;99.90
1988;DHT22;12775;46.994;15.498;2023-05-14T07:17:04;13.40;99.90
1988;DHT22;12775;46.994;15.498;2023-05-14T07:19:32;13.40;99.90
1988;DHT22;12775;46.994;15.498;2023-05-14T07:21:59;13.40;99.90
1988;DHT22;12775;46.994;15.498;2023-05-14T07:24:26;13.40;99.90
1988;DHT22;12775;46.994;15.498;2023-05-14T07:26:52;13.40;99.90
1988;DHT22;12775;46.994;15.498;2023-05-14T07:29:19;13.40;99.90
1988;DHT22;12775;46.994;15.498;2023-05-14T07:31:45;13.50;99.90
1988;DHT22;12775;46.994;15.498;2023-05-14T07:34:12;13.50;99.90
1988;DHT22;12775;46.994;15.498;2023-05-14T07:36:39;13.40;99.90
1988;DHT22;12775;46.994;15.498;2023-05-14T07:39:05;13.40;99.90
1988;DHT22;12775;46.994;15.498;2023-05-14T07:41:32;13.40;99.90
1988;DHT22;12775;46.994;15.498;2023-05-14T07:43:58;13.30;99.90
1988;DHT22;12775;46.994;15.498;2023-05-14T07:46:25;13.30;99.90
1988;DHT22;12775;46.994;15.498;2023-05-14T07:48:51;13.40;99.90
1988;DHT22;12775;46.994;15.498;2023-05-14T07:51:18;13.40;99.90
1988;DHT22;12775;46.994;15.498;2023-05-14T07:53:45;13.40;99.90
1988;DHT22;12775;46.994;15.498;2023-05-14T07:56:11;13.50;99.90
1988;DHT22;12775;46.994;15.498;2023-05-14T07:58:38;13.40;99.90
1988;DHT22;12775;46.994;15.498;2023-05-14T08:01:04;13.50;99.90
1988;DHT22;12775;46.994;15.498;2023-05-14T08:03:31;13.60;99.90
1988;DHT22;12775;46.994;15.498;2023-05-14T08:05:58;13.50;99.90
1988;DHT22;12775;46.994;15.498;2023-05-14T08:08:24;13.50;99.90
1988;DHT22;12775;46.994;15.498;2023-05-14T08:10:51;13.50;99.90
1988;DHT22;12775;46.994;15.498;2023-05-14T08:13:18;13.50;99.90
1988;DHT22;12775;46.994;15.498;2023-05-14T08:15:45;13.50;99.90
1988;DHT22;12775;46.994;15.498;2023-05-14T08:18:12;13.50;99.90
1988;DHT22;12775;46.994;15.498;2023-05-14T08:20:38;13.40;99.90
1988;DHT22;12775;46.994;15.498;2023-05-14T08:23:05;13.40;99.90
1988;DHT22;12775;46.994;15.498;2023-05-14T08:25:32;13.40;99.90
1988;DHT22;12775;46.994;15.498;2023-05-14T08:27:58;13.30;99.90
1988;DHT22;12775;46.994;15.498;2023-05-14T08:30:25;13.10;99.90
1988;DHT22;12775;46.994;15.498;2023-05-14T08:32:51;13.10;99.90
1988;DHT22;12775;46.994;15.498;2023-05-14T08:35:18;13.10;99.90
1988;DHT22;12775;46.994;15.498;2023-05-14T08:37:44;13.10;99.90
1988;DHT22;12775;46.994;15.498;2023-05-14T08:40:11;13.10;99.90
1988;DHT22;12775;46.994;15.498;2023-05-14T08:42:38;13.10;99.90
1988;DHT22;12775;46.994;15.498;2023-05-14T08:45:10;13.00;99.90
1988;DHT22;12775;46.994;15.498;2023-05-14T08:47:35;13.10;99.90
1988;DHT22;12775;46.994;15.498;2023-05-14T08:50:02;13.20;99.90
1988;DHT22;12775;46.994;15.498;2023-05-14T08:52:29;13.20;99.90
1988;DHT22;12775;46.994;15.498;2023-05-14T08:54:56;13.20;99.90
1988;DHT22;12775;46.994;15.498;2023-05-14T08:57:22;13.20;99.90
1988;DHT22;12775;46.994;15.498;2023-05-14T08:59:50;13.30;99.90
1988;DHT22;12775;46.994;15.498;2023-05-14T09:02:16;13.30;99.90
1988;DHT22;12775;46.994;15.498;2023-05-14T09:04:44;13.40;99.90
1988;DHT22;12775;46.994;15.498;2023-05-14T09:07:10;13.30;99.90
1988;DHT22;12775;46.994;15.498;2023-05-14T09:09:37;13.30;99.90
1988;DHT22;12775;46.994;15.498;2023-05-14T09:12:04;13.40;99.90
1988;DHT22;12775;46.994;15.498;2023-05-14T09:14:31;13.40;99.90
1988;DHT22;12775;46.994;15.498;2023-05-14T09:16:57;13.40;99.90
1988;DHT22;12775;46.994;15.498;2023-05-14T09:19:24;13.40;99.90
1988;DHT22;12775;46.994;15.498;2023-05-14T09:21:54;13.40;99.90
1988;DHT22;12775;46.994;15.498;2023-05-14T09:24:21;13.30;99.90
1988;DHT22;12775;46.994;15.498;2023-05-14T09:26:52;13.40;99.90
1988;DHT22;12775;46.994;15.498;2023-05-14T09:29:16;13.40;99.90
1988;DHT22;12775;46.994;15.498;2023-05-14T09:31:44;13.40;99.90
1988;DHT22;12775;46.994;15.498;2023-05-14T09:34:10;13.40;99.90
1988;DHT22;12775;46.994;15.498;2023-05-14T09:36:38;13.40;99.90
1988;DHT22;12775;46.994;15.498;2023-05-14T09:39:04;13.40;99.90
1988;DHT22;12775;46.994;15.498;2023-05-14T09:41:31;13.30;99.90
1988;DHT22;12775;46.994;15.498;2023-05-14T09:43:58;13.20;99.90
1988;DHT22;12775;46.994;15.498;2023-05-14T09:46:24;13.20;99.90
1988;DHT22;12775;46.994;15.498;2023-05-14T09:48:51;13.20;99.90
1988;DHT22;12775;46.994;15.498;2023-05-14T09:51:17;13.20;99.90
1988;DHT22;12775;46.994;15.498;2023-05-14T09:53:44;13.10;99.90
1988;DHT22;12775;46.994;15.498;2023-05-14T09:56:11;13.10;99.90
1988;DHT22;12775;46.994;15.498;2023-05-14T09:58:37;13.10;99.90
1988;DHT22;12775;46.994;15.498;2023-05-14T10:01:04;13.10;99.90
1988;DHT22;12775;46.994;15.498;2023-05-14T10:03:31;13.10;99.90
1988;DHT22;12775;46.994;15.498;2023-05-14T10:05:59;13.00;99.90
1988;DHT22;12775;46.994;15.498;2023-05-14T10:08:25;13.10;99.90
1988;DHT22;12775;46.994;15.498;2023-05-14T10:10:52;13.20;99.90
1988;DHT22;12775;46.994;15.498;2023-05-14T10:13:19;13.40;99.90
1988;DHT22;12775;46.994;15.498;2023-05-14T10:15:47;13.40;99.90
1988;DHT22;12775;46.994;15.498;2023-05-14T10:18:14;13.30;99.90
1988;DHT22;12775;46.994;15.498;2023-05-14T10:20:39;13.40;99.90
1988;DHT22;12775;46.994;15.498;2023-05-14T10:23:06;13.60;99.90
1988;DHT22;12775;46.994;15.498;2023-05-14T10:25:33;13.60;99.90
1988;DHT22;12775;46.994;15.498;2023-05-14T10:27:59;13.60;99.90
1988;DHT22;12775;46.994;15.498;2023-05-14T10:30:25;13.50;99.90
1988;DHT22;12775;46.994;15.498;2023-05-14T10:33:10;13.50;99.90
1988;DHT22;12775;46.994;15.498;2023-05-14T10:40:59;13.40;99.90
1988;DHT22;12775;46.994;15.498;2023-05-14T10:43:27;13.30;99.90
1988;DHT22;12775;46.994;15.498;2023-05-14T10:45:54;13.30;99.90
1988;DHT22;12775;46.994;15.498;2023-05-14T10:48:20;13.20;99.90
1988;DHT22;12775;46.994;15.498;2023-05-14T10:50:48;13.40;99.90
1988;DHT22;12775;46.994;15.498;2023-05-14T10:53:14;13.40;99.90
1988;DHT22;12775;46.994;15.498;2023-05-14T10:55:41;13.60;99.90
1988;DHT22;12775;46.994;15.498;2023-05-14T10:58:07;13.60;99.90
1988;DHT22;12775;46.994;15.498;2023-05-14T11:00:34;13.80;99.90
1988;DHT22;12775;46.994;15.498;2023-05-14T11:03:02;13.70;99.90
1988;DHT22;12775;46.994;15.498;2023-05-14T11:05:27;13.70;99.90
1988;DHT22;12775;46.994;15.498;2023-05-14T11:07:54;13.60;99.90
1988;DHT22;12775;46.994;15.498;2023-05-14T11:10:22;13.90;99.90
1988;DHT22;12775;46.994;15.498;2023-05-14T11:12:49;14.00;99.90
1988;DHT22;12775;46.994;15.498;2023-05-14T11:15:20;14.00;99.90
1988;DHT22;12775;46.994;15.498;2023-05-14T11:17:44;14.10;99.90
1988;DHT22;12775;46.994;15.498;2023-05-14T11:20:11;14.10;99.90
1988;DHT22;12775;46.994;15.498;2023-05-14T11:22:39;14.00;99.90
1988;DHT22;12775;46.994;15.498;2023-05-14T11:25:05;13.80;99.90
1988;DHT22;12775;46.994;15.498;2023-05-14T11:27:33;13.50;99.90
1988;DHT22;12775;46.994;15.498;2023-05-14T11:29:59;13.20;99.90
1988;DHT22;12775;46.994;15.498;2023-05-14T11:32:25;13.20;99.90
1988;DHT22;12775;46.994;15.498;2023-05-14T11:34:53;13.20;99.90
1988;DHT22;12775;46.994;15.498;2023-05-14T11:37:20;13.00;99.90
1988;DHT22;12775;46.994;15.498;2023-05-14T11:39:47;13.00;99.90
1988;DHT22;12775;46.994;15.498;2023-05-14T11:42:13;12.90;99.90
1988;DHT22;12775;46.994;15.498;2023-05-14T11:44:40;12.80;99.90
1988;DHT22;12775;46.994;15.498;2023-05-14T11:47:06;13.00;99.90
1988;DHT22;12775;46.994;15.498;2023-05-14T11:49:33;13.20;99.90
1988;DHT22;12775;46.994;15.498;2023-05-14T11:52:01;13.20;99.90
1988;DHT22;12775;46.994;15.498;2023-05-14T11:54:27;13.30;99.90
1988;DHT22;12775;46.994;15.498;2023-05-14T11:56:55;13.50;99.90
1988;DHT22;12775;46.994;15.498;2023-05-14T11:59:23;13.60;99.90
1988;DHT22;12775;46.994;15.498;2023-05-14T12:01:51;13.70;99.90
1988;DHT22;12775;46.994;15.498;2023-05-14T12:04:18;13.70;99.90
1988;DHT22;12775;46.994;15.498;2023-05-14T12:06:45;13.90;99.90
1988;DHT22;12775;46.994;15.498;2023-05-14T12:09:13;13.90;99.90
1988;DHT22;12775;46.994;15.498;2023-05-14T12:11:39;13.90;99.90
1988;DHT22;12775;46.994;15.498;2023-05-14T12:14:10;13.60;99.90
1988;DHT22;12775;46.994;15.498;2023-05-14T12:16:38;13.60;99.90
1988;DHT22;12775;46.994;15.498;2023-05-14T12:19:03;13.60;99.90
1988;DHT22;12775;46.994;15.498;2023-05-14T12:21:29;13.60;99.90
1988;DHT22;12775;46.994;15.498;2023-05-14T12:23:57;13.60;99.90
1988;DHT22;12775;46.994;15.498;2023-05-14T12:26:24;13.50;99.90
1988;DHT22;12775;46.994;15.498;2023-05-14T12:28:55;13.50;99.90
1988;DHT22;12775;46.994;15.498;2023-05-14T12:31:16;13.50;99.90
1988;DHT22;12775;46.994;15.498;2023-05-14T12:33:44;13.30;99.90
1988;DHT22;12775;46.994;15.498;2023-05-14T12:36:10;13.20;99.90
1988;DHT22;12775;46.994;15.498;2023-05-14T12:38:37;13.20;99.90
1988;DHT22;12775;46.994;15.498;2023-05-14T12:41:04;13.20;99.90
1988;DHT22;12775;46.994;15.498;2023-05-14T12:43:30;13.20;99.90
1988;DHT22;12775;46.994;15.498;2023-05-14T12:45:57;13.10;99.90
1988;DHT22;12775;46.994;15.498;2023-05-14T12:48:24;13.30;99.90
1988;DHT22;12775;46.994;15.498;2023-05-14T12:50:50;13.30;99.90
1988;DHT22;12775;46.994;15.498;2023-05-14T12:53:17;13.40;99.90
1988;DHT22;12775;46.994;15.498;2023-05-14T12:55:43;13.50;99.90
1988;DHT22;12775;46.994;15.498;2023-05-14T12:58:10;13.40;99.90
1988;DHT22;12775;46.994;15.498;2023-05-14T13:00:37;13.50;99.90
1988;DHT22;12775;46.994;15.498;2023-05-14T13:03:04;13.60;99.90
1988;DHT22;12775;46.994;15.498;2023-05-14T13:05:30;13.60;99.90
1988;DHT22;12775;46.994;15.498;2023-05-14T13:07:57;13.70;99.90
1988;DHT22;12775;46.994;15.498;2023-05-14T13:10:24;13.80;99.90
1988;DHT22;12775;46.994;15.498;2023-05-14T13:12:50;13.70;99.90
1988;DHT22;12775;46.994;15.498;2023-05-14T13:15:17;13.70;99.90
1988;DHT22;12775;46.994;15.498;2023-05-14T13:17:43;13.60;99.90
1988;DHT22;12775;46.994;15.498;2023-05-14T13:20:10;13.60;99.90
1988;DHT22;12775;46.994;15.498;2023-05-14T13:22:37;13.70;99.90
1988;DHT22;12775;46.994;15.498;2023-05-14T13:25:04;13.70;99.90
1988;DHT22;12775;46.994;15.498;2023-05-14T13:27:30;13.60;99.90
1988;DHT22;12775;46.994;15.498;2023-05-14T13:29:57;13.60;99.90
1988;DHT22;12775;46.994;15.498;2023-05-14T13:32:24;13.60;99.90
1988;DHT22;12775;46.994;15.498;2023-05-14T13:34:50;13.50;99.90
1988;DHT22;12775;46.994;15.498;2023-05-14T13:37:17;13.40;99.90
1988;DHT22;12775;46.994;15.498;2023-05-14T13:39:43;13.30;99.90
1988;DHT22;12775;46.994;15.498;2023-05-14T13:42:10;13.30;99.90
1988;DHT22;12775;46.994;15.498;2023-05-14T13:44:37;13.40;99.90
1988;DHT22;12775;46.994;15.498;2023-05-14T13:47:04;13.40;99.90
1988;DHT22;12775;46.994;15.498;2023-05-14T13:49:30;13.50;99.90
1988;DHT22;12775;46.994;15.498;2023-05-14T13:51:57;13.50;99.90
1988;DHT22;12775;46.994;15.498;2023-05-14T13:54:24;13.60;99.90
1988;DHT22;12775;46.994;15.498;2023-05-14T13:56:50;13.60;99.90
1988;DHT22;12775;46.994;15.498;2023-05-14T13:59:18;13.70;99.90
1988;DHT22;12775;46.994;15.498;2023-05-14T14:01:44;13.70;99.90
1988;DHT22;12775;46.994;15.498;2023-05-14T14:04:11;13.60;99.90
1988;DHT22;12775;46.994;15.498;2023-05-14T14:06:38;13.50;99.90
1988;DHT22;12775;46.994;15.498;2023-05-14T14:09:04;13.60;99.90
1988;DHT22;12775;46.994;15.498;2023-05-14T14:11:31;13.70;99.90
1988;DHT22;12775;46.994;15.498;2023-05-14T14:13:57;13.70;99.90
1988;DHT22;12775;46.994;15.498;2023-05-14T14:16:24;13.90;99.90
1988;DHT22;12775;46.994;15.498;2023-05-14T14:18:50;13.70;99.90
1988;DHT22;12775;46.994;15.498;2023-05-14T14:21:17;13.80;99.90
1988;DHT22;12775;46.994;15.498;2023-05-14T14:23:44;13.70;99.90
1988;DHT22;12775;46.994;15.498;2023-05-14T14:26:11;13.60;99.90
1988;DHT22;12775;46.994;15.498;2023-05-14T14:28:38;13.60;99.90
1988;DHT22;12775;46.994;15.498;2023-05-14T14:31:05;13.60;99.90
1988;DHT22;12775;46.994;15.498;2023-05-14T14:33:31;13.60;99.90
1988;DHT22;12775;46.994;15.498;2023-05-14T14:35:58;13.70;99.90
1988;DHT22;12775;46.994;15.498;2023-05-14T14:38:25;13.90;99.90
1988;DHT22;12775;46.994;15.498;2023-05-14T14:40:52;13.80;99.90
1988;DHT22;12775;46.994;15.498;2023-05-14T14:43:19;13.90;99.90
1988;DHT22;12775;46.994;15.498;2023-05-14T14:45:45;14.00;99.90
1988;DHT22;12775;46.994;15.498;2023-05-14T14:48:34;14.00;99.90
1988;DHT22;12775;46.994;15.498;2023-05-14T14:51:00;14.10;99.90
1988;DHT22;12775;46.994;15.498;2023-05-14T14:53:27;14.10;99.90
1988;DHT22;12775;46.994;15.498;2023-05-14T14:55:53;14.10;99.90
1988;DHT22;12775;46.994;15.498;2023-05-14T14:58:20;14.00;99.90
1988;DHT22;12775;46.994;15.498;2023-05-14T15:00:47;14.10;99.90
1988;DHT22;12775;46.994;15.498;2023-05-14T15:03:13;14.10;99.90
1988;DHT22;12775;46.994;15.498;2023-05-14T15:05:40;14.10;99.90
1988;DHT22;12775;46.994;15.498;2023-05-14T15:08:06;14.10;99.90
1988;DHT22;12775;46.994;15.498;2023-05-14T15:10:33;14.20;99.90
1988;DHT22;12775;46.994;15.498;2023-05-14T15:12:59;14.20;99.90
1988;DHT22;12775;46.994;15.498;2023-05-14T15:15:26;14.20;99.90
1988;DHT22;12775;46.994;15.498;2023-05-14T15:17:53;14.20;99.90
1988;DHT22;12775;46.994;15.498;2023-05-14T15:20:19;14.20;99.90
1988;DHT22;12775;46.994;15.498;2023-05-14T15:22:46;14.20;99.90
1988;DHT22;12775;46.994;15.498;2023-05-14T15:25:13;14.20;99.90
1988;DHT22;12775;46.994;15.498;2023-05-14T15:27:39;14.20;99.90
1988;DHT22;12775;46.994;15.498;2023-05-14T15:30:06;14.20;99.90
1988;DHT22;12775;46.994;15.498;2023-05-14T15:32:33;14.30;99.90